Time;durP1;ratioP1;P1;durP2;ratioP2;P2;SDS_P1;SDS_P2;PMS_P1;PMS_P2;Temp;Humidity;BMP_temperature;BMP_pressure;BME280_temperature;BME280_humidity;BME280_pressure;Samples;Min_cycle;Max_cycle;Signal;HPM_P1;HPM_P2
2022/09/08 00:01:07;;;;;;;4.82;2.03;;;;;;;19.92;100.00;100535.97;5057482;28;20034;-92
2022/09/08 00:03:35;;;;;;;8.53;2.30;;;;;;;19.82;100.00;100541.69;5054008;28;20036;-89
2022/09/08 00:06:13;;;;;;;4.70;2.25;;;;;;;19.88;100.00;100540.84;5070480;28;20477;-88
2022/09/08 00:08:40;;;;;;;5.55;2.00;;;;;;;19.96;100.00;100547.75;5053175;28;20059;-93
2022/09/08 00:11:08;;;;;;;2.28;1.65;;;;;;;19.98;100.00;100551.00;5055690;28;20106;-90
2022/09/08 00:13:58;;;;;;;2.13;1.70;;;;;;;19.92;100.00;100551.81;5060410;28;20468;-92
2022/09/08 00:16:23;;;;;;;4.32;1.95;;;;;;;19.91;100.00;100552.03;5075702;28;20039;-88
2022/09/08 00:18:50;;;;;;;3.90;1.48;;;;;;;19.94;99.97;100551.63;5057658;28;20029;-88
2022/09/08 00:21:17;;;;;;;5.35;1.65;;;;;;;19.91;100.00;100550.19;5056228;28;20036;-87
2022/09/08 00:23:43;;;;;;;3.75;1.98;;;;;;;19.92;100.00;100543.88;5057417;28;20531;-86
2022/09/08 00:26:16;;;;;;;4.43;1.83;;;;;;;19.95;100.00;100546.13;5060988;28;20063;-89
2022/09/08 00:28:41;;;;;;;2.30;1.73;;;;;;;19.95;99.75;100543.47;5058128;28;20052;-88
2022/09/08 00:31:07;;;;;;;4.03;1.60;;;;;;;19.98;100.00;100551.00;5054057;28;20175;-90
2022/09/08 00:33:33;;;;;;;4.68;2.30;;;;;;;19.96;100.00;100547.75;5068886;28;20028;-89
2022/09/08 00:35:59;;;;;;;4.78;1.80;;;;;;;19.95;100.00;100540.84;5052816;28;20045;-87
2022/09/08 00:38:26;;;;;;;5.03;2.10;;;;;;;19.93;100.00;100534.94;5051205;28;20029;-87
2022/09/08 00:41:12;;;;;;;3.78;2.08;;;;;;;19.93;100.00;100542.88;5051538;28;20083;-88
2022/09/08 00:43:58;;;;;;;5.63;2.03;;;;;;;19.89;100.00;100541.66;5051238;28;20041;-89
2022/09/08 00:46:44;;;;;;;6.50;2.53;;;;;;;19.87;100.00;100531.28;5052107;28;20060;-90
2022/09/08 00:49:20;;;;;;;7.68;3.20;;;;;;;19.85;100.00;100538.59;5033469;28;20050;-89
2022/09/08 00:51:49;;;;;;;5.13;2.47;;;;;;;19.85;100.00;100540.44;5033361;28;20075;-90
2022/09/08 00:54:17;;;;;;;5.72;2.10;;;;;;;19.85;100.00;100546.53;5048982;28;20033;-89
2022/09/08 00:56:45;;;;;;;5.85;2.53;;;;;;;19.89;100.00;100533.72;5047300;28;20040;-89
2022/09/08 00:59:13;;;;;;;5.75;2.50;;;;;;;19.91;100.00;100531.69;5048166;28;20043;-90
2022/09/08 01:01:56;;;;;;;2.95;2.70;;;;;;;19.89;100.00;100523.97;5045983;28;20453;-89
2022/09/08 01:04:22;;;;;;;9.57;2.90;;;;;;;19.88;100.00;100529.44;5052490;28;20036;-87
2022/09/08 01:12:48;;;;;;;4.53;2.40;;;;;;;19.88;100.00;100521.50;5054818;28;20039;-87
2022/09/08 01:15:21;;;;;;;6.20;2.55;;;;;;;19.89;100.00;100515.22;5050194;28;20139;-94
2022/09/08 01:17:54;;;;;;;3.97;1.77;;;;;;;19.90;100.00;100508.91;5049447;28;20037;-87
2022/09/08 01:20:27;;;;;;;5.75;2.15;;;;;;;19.89;100.00;100510.72;5054259;28;20037;-88
2022/09/08 01:23:35;;;;;;;4.55;2.30;;;;;;;19.89;100.00;100507.28;5053648;28;20033;-89
2022/09/08 01:26:15;;;;;;;4.05;2.10;;;;;;;19.90;100.00;100511.56;5043952;28;20120;-88
2022/09/08 01:29:01;;;;;;;2.72;1.77;;;;;;;19.89;100.00;100512.56;5055604;28;20033;-90
2022/09/08 01:31:32;;;;;;;4.25;1.80;;;;;;;19.90;100.00;100514.19;5054083;28;20122;-87
2022/09/08 01:33:59;;;;;;;3.05;1.88;;;;;;;19.93;99.94;100507.69;5051451;28;20507;-90
2022/09/08 01:36:43;;;;;;;4.30;1.73;;;;;;;19.99;100.00;100515.63;5048484;28;20063;-88
2022/09/08 01:39:08;;;;;;;5.38;1.65;;;;;;;20.03;100.00;100518.66;5050039;28;20488;-89
2022/09/08 01:41:34;;;;;;;3.60;2.35;;;;;;;20.05;100.00;100501.59;5053147;28;20124;-90
2022/09/08 01:44:00;;;;;;;4.15;2.22;;;;;;;20.03;100.00;100489.56;5049039;28;20079;-88
2022/09/08 01:46:26;;;;;;;5.15;2.25;;;;;;;19.94;100.00;100474.94;5054586;28;20028;-91
2022/09/08 01:48:52;;;;;;;5.53;2.10;;;;;;;19.75;100.00;100474.78;5051306;28;20452;-93
2022/09/08 01:51:17;;;;;;;2.75;1.77;;;;;;;19.79;100.00;100499.78;5054467;28;20435;-87
2022/09/08 01:53:43;;;;;;;5.38;2.50;;;;;;;19.84;100.00;100497.34;5047680;28;20104;-89
2022/09/08 01:56:08;;;;;;;4.40;2.22;;;;;;;19.83;100.00;100474.56;5047457;28;20037;-88
2022/09/08 01:58:34;;;;;;;5.45;1.92;;;;;;;19.80;100.00;100474.97;5047086;28;20028;-90
2022/09/08 02:01:00;;;;;;;5.72;2.35;;;;;;;19.79;100.00;100467.25;5049796;28;20033;-87
2022/09/08 02:03:25;;;;;;;3.63;1.80;;;;;;;19.75;100.00;100463.38;5047657;28;20048;-87
2022/09/08 02:05:51;;;;;;;7.68;2.35;;;;;;;19.73;100.00;100482.09;5047076;28;20488;-90
2022/09/08 02:08:17;;;;;;;5.63;2.25;;;;;;;19.71;100.00;100478.03;5046446;28;20503;-92
2022/09/08 02:10:52;;;;;;;2.88;2.15;;;;;;;19.69;100.00;100490.63;5047204;28;20047;-89
2022/09/08 02:13:17;;;;;;;2.35;2.15;;;;;;;19.67;100.00;100498.75;5045108;28;20044;-90
2022/09/08 02:15:43;;;;;;;7.38;2.22;;;;;;;19.64;100.00;100490.41;5048004;28;20369;-91
2022/09/08 02:18:08;;;;;;;4.03;1.75;;;;;;;19.60;100.00;100505.88;5044503;28;20047;-90
2022/09/08 02:20:34;;;;;;;7.35;2.72;;;;;;;19.62;100.00;100510.94;5046094;28;20029;-87
2022/09/08 02:22:59;;;;;;;3.08;2.22;;;;;;;19.63;100.00;100504.66;5043351;28;20025;-88
2022/09/08 02:26:00;;;;;;;5.70;2.67;;;;;;;19.49;100.00;100494.03;5047504;28;20033;-89
2022/09/08 02:28:58;;;;;;;;;;;;;;;;;;;;;
2022/09/08 02:35:40;;;;;;;5.15;3.92;;;;;;;18.90;100.00;100489.44;4958256;28;20059;-90
2022/09/08 02:38:37;;;;;;;7.05;4.50;;;;;;;18.86;100.00;100505.88;4967571;28;20097;-89
2022/09/08 02:41:07;;;;;;;10.07;4.90;;;;;;;18.86;100.00;100487.41;4970681;28;20144;-88
2022/09/08 02:44:14;;;;;;;8.45;3.88;;;;;;;18.86;100.00;100461.81;4968492;28;20034;-92
2022/09/08 02:46:46;;;;;;;5.55;4.15;;;;;;;18.83;100.00;100446.38;4932950;29;20050;-90
2022/09/08 02:51:47;;;;;;;10.35;5.38;;;;;;;18.85;100.00;100444.38;4874041;22;20087;-67
2022/09/08 02:54:13;;;;;;;10.25;6.03;;;;;;;18.92;100.00;100448.81;5030480;28;20032;-67
2022/09/08 02:56:40;;;;;;;7.93;6.07;;;;;;;18.92;100.00;100427.69;5030782;28;20084;-67
2022/09/08 02:59:05;;;;;;;9.25;4.95;;;;;;;18.87;100.00;100430.97;5030563;28;20430;-67
2022/09/08 03:01:31;;;;;;;5.95;4.95;;;;;;;18.91;100.00;100434.81;5030744;28;20034;-67
2022/09/08 03:03:56;;;;;;;8.18;4.70;;;;;;;18.90;100.00;100431.34;5012549;28;20021;-67
2022/09/08 03:06:22;;;;;;;8.38;5.15;;;;;;;18.84;100.00;100426.91;5030477;28;20040;-67
2022/09/08 03:08:47;;;;;;;11.02;4.45;;;;;;;18.83;100.00;100425.28;5030435;28;20025;-67
2022/09/08 03:11:13;;;;;;;6.60;4.32;;;;;;;18.81;100.00;100421.19;5030304;28;20029;-67
2022/09/08 03:13:39;;;;;;;6.47;4.53;;;;;;;18.81;100.00;100422.03;5030543;28;20495;-67
2022/09/08 03:16:05;;;;;;;6.72;4.50;;;;;;;18.85;100.00;100411.88;5030277;28;20036;-66
2022/09/08 03:18:31;;;;;;;5.22;3.70;;;;;;;18.87;100.00;100415.94;5030156;28;20358;-67
2022/09/08 03:21:10;;;;;;;4.88;3.20;;;;;;;18.88;100.00;100411.47;5030209;28;20036;-68
2022/09/08 03:23:37;;;;;;;3.92;3.08;;;;;;;18.88;100.00;100412.28;5030207;28;20044;-68
2022/09/08 03:26:22;;;;;;;3.33;2.88;;;;;;;18.88;100.00;100414.94;5030022;28;20112;-67
2022/09/08 03:28:48;;;;;;;4.82;2.75;;;;;;;18.87;100.00;100402.75;5029991;28;20093;-66
2022/09/08 03:31:19;;;;;;;7.25;3.35;;;;;;;18.89;100.00;100392.00;5029890;28;20033;-66
2022/09/08 03:33:46;;;;;;;5.90;3.75;;;;;;;18.85;100.00;100393.41;5029736;28;20502;-67
2022/09/08 03:36:13;;;;;;;8.57;4.38;;;;;;;18.82;100.00;100386.69;5012026;28;20480;-66
2022/09/08 03:38:39;;;;;;;5.70;4.18;;;;;;;18.80;100.00;100391.34;5029838;28;20107;-67
2022/09/08 03:41:07;;;;;;;4.88;3.67;;;;;;;18.77;100.00;100378.56;5030119;28;20451;-66
2022/09/08 03:43:33;;;;;;;4.90;3.67;;;;;;;18.76;100.00;100371.66;5029727;28;20485;-67
2022/09/08 03:45:59;;;;;;;8.38;3.88;;;;;;;18.78;100.00;100367.00;5029545;28;20567;-66
2022/09/08 03:48:24;;;;;;;5.32;3.22;;;;;;;18.81;100.00;100357.84;5029547;28;20151;-66
2022/09/08 03:50:51;;;;;;;5.50;3.10;;;;;;;18.82;100.00;100354.19;5029614;28;20404;-68
2022/09/08 03:53:16;;;;;;;4.13;3.08;;;;;;;18.80;100.00;100351.75;5029634;28;20120;-66
2022/09/08 03:55:42;;;;;;;8.80;3.55;;;;;;;18.73;100.00;100361.50;5029785;28;20746;-68
2022/09/08 03:58:09;;;;;;;5.88;4.30;;;;;;;18.65;100.00;100359.03;5029337;28;20247;-67
2022/09/08 04:00:35;;;;;;;7.82;4.07;;;;;;;18.64;100.00;100357.41;5029283;28;20029;-66
2022/09/08 04:03:01;;;;;;;5.40;3.65;;;;;;;18.63;100.00;100353.16;5011075;28;20334;-67
2022/09/08 04:05:27;;;;;;;5.72;2.92;;;;;;;18.64;100.00;100360.03;5029110;28;20037;-68
2022/09/08 04:07:52;;;;;;;7.38;3.17;;;;;;;18.58;100.00;100363.44;5029073;28;20017;-68
2022/09/08 04:10:19;;;;;;;7.40;3.60;;;;;;;18.62;100.00;100362.06;5029057;28;20098;-67
2022/09/08 04:12:46;;;;;;;6.63;4.47;;;;;;;18.66;100.00;100365.94;5011127;28;20029;-67
2022/09/08 04:15:12;;;;;;;9.35;3.97;;;;;;;18.69;100.00;100372.66;5028839;28;20030;-67
2022/09/08 04:17:38;;;;;;;9.05;3.78;;;;;;;18.71;100.00;100368.78;5029134;28;20045;-65
2022/09/08 04:20:05;;;;;;;7.55;3.92;;;;;;;18.70;100.00;100361.06;5028969;28;20034;-66
2022/09/08 04:22:30;;;;;;;6.63;3.95;;;;;;;18.67;100.00;100357.00;5028901;28;20377;-66
2022/09/08 04:24:56;;;;;;;5.97;3.30;;;;;;;18.66;100.00;100347.47;5028965;28;20036;-67
2022/09/08 04:27:22;;;;;;;7.05;3.00;;;;;;;18.69;100.00;100338.34;5028662;28;20033;-71
2022/09/08 04:29:47;;;;;;;3.58;2.97;;;;;;;18.69;100.00;100331.22;5028445;28;20052;-71
2022/09/08 04:32:13;;;;;;;5.15;2.55;;;;;;;18.71;100.00;100323.13;5028577;28;20033;-68
2022/09/08 04:34:39;;;;;;;3.80;2.50;;;;;;;18.69;100.00;100328.59;5028776;28;20075;-69
2022/09/08 04:37:05;;;;;;;3.97;2.03;;;;;;;18.76;100.00;100324.16;5028667;28;20037;-73
2022/09/08 04:39:31;;;;;;;2.17;1.58;;;;;;;18.79;100.00;100331.66;5028679;28;20072;-72
2022/09/08 04:41:57;;;;;;;4.82;2.65;;;;;;;18.80;100.00;100335.94;5028656;28;20105;-70
2022/09/08 04:44:22;;;;;;;4.70;1.90;;;;;;;18.86;100.00;100335.13;5028213;28;20549;-67
2022/09/08 04:46:48;;;;;;;5.28;2.10;;;;;;;18.89;100.00;100337.38;5028783;28;20029;-70
2022/09/08 04:49:13;;;;;;;4.40;3.00;;;;;;;18.88;100.00;100343.66;5028518;28;20021;-69
2022/09/08 04:51:39;;;;;;;3.15;2.60;;;;;;;18.89;100.00;100340.00;5028185;28;20089;-68
2022/09/08 04:54:05;;;;;;;3.05;2.55;;;;;;;18.89;100.00;100350.56;5028437;28;20029;-69
2022/09/08 04:56:31;;;;;;;6.65;2.00;;;;;;;18.95;100.00;100342.81;5028328;28;20138;-70
2022/09/08 04:58:59;;;;;;;5.05;2.40;;;;;;;19.01;100.00;100342.84;5028274;28;20108;-72
2022/09/08 05:01:28;;;;;;;3.63;2.40;;;;;;;19.02;100.00;100359.50;5010302;28;20392;-69
2022/09/08 05:03:56;;;;;;;2.70;2.28;;;;;;;19.02;100.00;100351.56;5028678;28;20106;-71
2022/09/08 05:06:23;;;;;;;5.00;2.67;;;;;;;19.01;100.00;100352.59;5028005;28;20029;-70
2022/09/08 05:08:51;;;;;;;6.50;3.22;;;;;;;19.03;100.00;100355.84;5028365;28;20029;-70
2022/09/08 05:11:18;;;;;;;6.28;3.63;;;;;;;19.04;100.00;100357.47;5028036;28;20120;-69
2022/09/08 05:13:44;;;;;;;6.30;3.00;;;;;;;19.06;100.00;100350.16;5027703;28;20025;-70
2022/09/08 05:16:13;;;;;;;6.20;3.30;;;;;;;19.08;100.00;100350.75;5027730;28;20025;-72
2022/09/08 05:18:39;;;;;;;8.27;3.42;;;;;;;19.08;100.00;100353.41;5028170;28;20040;-71
2022/09/08 05:21:06;;;;;;;8.70;3.40;;;;;;;19.07;100.00;100372.91;5027958;28;20029;-71
2022/09/08 05:23:32;;;;;;;9.02;3.55;;;;;;;18.99;100.00;100365.97;5028345;28;20029;-71
2022/09/08 05:26:06;;;;;;;7.65;3.25;;;;;;;18.95;100.00;100356.84;5027673;28;20109;-67
2022/09/08 05:28:35;;;;;;;6.13;3.35;;;;;;;18.91;100.00;100350.34;5027799;28;20033;-69
2022/09/08 05:31:02;;;;;;;5.70;2.45;;;;;;;18.91;100.00;100345.06;5027867;28;20045;-73
2022/09/08 05:33:29;;;;;;;7.55;2.67;;;;;;;18.97;100.00;100346.06;5027662;28;20477;-72
2022/09/08 05:35:55;;;;;;;3.45;1.98;;;;;;;19.01;100.00;100358.69;5009766;28;20128;-69
2022/09/08 05:38:21;;;;;;;4.38;1.95;;;;;;;19.08;100.00;100353.41;5027649;28;20037;-69
2022/09/08 05:40:47;;;;;;;4.65;2.63;;;;;;;19.11;100.00;100347.72;5027346;28;20027;-71
2022/09/08 05:43:14;;;;;;;2.80;2.47;;;;;;;19.08;100.00;100342.84;5027693;28;20021;-69
2022/09/08 05:45:46;;;;;;;6.53;2.92;;;;;;;19.03;100.00;100346.09;5010176;28;20388;-70
2022/09/08 05:48:12;;;;;;;5.65;2.78;;;;;;;19.01;100.00;100347.31;5009696;28;20072;-70
2022/09/08 05:50:41;;;;;;;5.88;2.78;;;;;;;19.00;100.00;100343.84;5027296;28;20164;-69
2022/09/08 05:53:06;;;;;;;6.75;2.53;;;;;;;19.01;100.00;100353.41;5009499;28;20033;-65
2022/09/08 05:55:32;;;;;;;5.28;2.97;;;;;;;19.06;100.00;100350.16;5027459;28;20563;-71
2022/09/08 05:57:57;;;;;;;5.20;2.10;;;;;;;19.09;100.00;100349.75;5027702;28;20029;-70
2022/09/08 06:00:23;;;;;;;5.57;2.67;;;;;;;19.21;100.00;100353.41;5027532;28;20418;-66
2022/09/08 06:02:50;;;;;;;4.72;2.17;;;;;;;19.29;100.00;100355.03;5027356;28;20037;-71
2022/09/08 06:05:17;;;;;;;6.75;2.05;;;;;;;19.32;100.00;100360.72;5027574;28;20112;-68
2022/09/08 06:07:42;;;;;;;2.83;1.73;;;;;;;19.39;100.00;100360.69;5027517;28;20029;-72
2022/09/08 06:10:09;;;;;;;5.47;2.70;;;;;;;19.46;100.00;100354.41;5027082;28;20018;-68
2022/09/08 06:12:34;;;;;;;5.03;2.45;;;;;;;19.52;100.00;100356.25;5009434;28;20465;-69
2022/09/08 06:15:00;;;;;;;3.65;2.38;;;;;;;19.53;100.00;100347.31;5027376;28;20052;-71
2022/09/08 06:17:25;;;;;;;7.80;2.22;;;;;;;19.54;100.00;100346.28;5027178;28;20389;-71
2022/09/08 06:19:50;;;;;;;3.95;2.38;;;;;;;19.55;100.00;100334.72;5030138;28;20052;-69
2022/09/08 06:22:16;;;;;;;6.18;2.30;;;;;;;19.61;100.00;100333.06;5031191;28;20162;-71
2022/09/08 06:24:42;;;;;;;4.93;2.10;;;;;;;19.66;100.00;100329.81;5031111;28;20136;-69
2022/09/08 06:27:30;;;;;;;3.75;1.98;;;;;;;19.66;100.00;100325.34;5031007;28;20060;-68
2022/09/08 06:30:01;;;;;;;2.70;2.05;;;;;;;19.67;100.00;100315.59;5029290;28;20444;-70
2022/09/08 06:32:29;;;;;;;8.45;2.30;;;;;;;19.71;100.00;100298.28;5030043;28;20065;-69
2022/09/08 06:35:13;;;;;;;4.93;2.60;;;;;;;19.72;100.00;100297.28;5030687;28;20484;-70
2022/09/08 06:37:38;;;;;;;4.30;1.45;;;;;;;19.76;100.00;100301.13;5028392;28;20044;-68
2022/09/08 06:40:09;;;;;;;2.42;1.67;;;;;;;19.79;100.00;100280.38;5009490;28;20045;-63
2022/09/08 06:43:14;;;;;;;3.92;1.42;;;;;;;19.79;100.00;100266.34;5009745;28;20033;-67
2022/09/08 06:45:46;;;;;;;4.93;1.38;;;;;;;19.81;100.00;100267.75;5024015;28;20041;-68
2022/09/08 06:48:15;;;;;;;4.03;2.20;;;;;;;19.85;100.00;100260.19;5030315;28;20036;-67
2022/09/08 06:51:34;;;;;;;3.47;1.65;;;;;;;19.83;100.00;100247.22;5030895;28;20049;-69
2022/09/08 06:54:08;;;;;;;3.65;1.33;;;;;;;19.83;100.00;100230.53;4949679;29;20035;-67
2022/09/08 06:56:39;;;;;;;5.05;1.83;;;;;;;19.82;100.00;100242.94;4949674;29;20089;-65
2022/09/08 06:59:16;;;;;;;6.68;1.52;;;;;;;19.80;100.00;100242.34;4969149;28;20034;-68
2022/09/08 07:02:06;;;;;;;2.88;1.30;;;;;;;19.73;100.00;100238.09;4969142;28;20054;-66
2022/09/08 07:04:42;;;;;;;2.85;1.60;;;;;;;19.71;100.00;100232.22;4957413;28;20182;-67
2022/09/08 07:07:34;;;;;;;3.05;1.95;;;;;;;19.63;100.00;100217.41;4933773;29;20136;-66
2022/09/08 07:10:19;;;;;;;7.80;2.47;;;;;;;19.57;100.00;100235.91;4966390;28;20037;-69
2022/09/08 07:13:03;;;;;;;10.35;3.00;;;;;;;19.46;100.00;100255.81;4988128;28;20066;-69
2022/09/08 07:15:56;;;;;;;5.80;2.38;;;;;;;19.38;100.00;100293.03;4958287;28;20075;-70
2022/09/08 07:18:32;;;;;;;10.75;4.30;;;;;;;19.28;100.00;100309.31;4949259;29;20047;-70
2022/09/08 07:21:21;;;;;;;10.40;4.85;;;;;;;19.06;100.00;100331.66;4948865;28;20047;-68
2022/09/08 07:23:50;;;;;;;29.75;6.88;;;;;;;18.92;100.00;100353.78;4935374;28;20039;-66
2022/09/08 07:26:30;;;;;;;19.17;5.57;;;;;;;18.63;100.00;100345.22;4955111;28;20027;-69
2022/09/08 07:29:04;;;;;;;8.20;3.22;;;;;;;18.17;100.00;100314.22;5009484;28;20033;-64
2022/09/08 07:31:30;;;;;;;15.68;4.07;;;;;;;17.72;100.00;100305.09;5026090;28;20248;-63
2022/09/08 07:34:10;;;;;;;13.48;5.15;;;;;;;17.61;100.00;100294.28;5029197;28;20029;-62
2022/09/08 07:36:54;;;;;;;11.18;5.18;;;;;;;17.57;100.00;100285.94;5026654;28;20128;-62
2022/09/08 07:39:26;;;;;;;12.18;5.40;;;;;;;17.62;100.00;100277.44;5028384;28;20110;-63
2022/09/08 07:41:58;;;;;;;10.05;3.75;;;;;;;17.63;100.00;100263.28;5027937;28;20045;-63
2022/09/08 07:44:25;;;;;;;5.95;3.35;;;;;;;17.61;100.00;100270.56;5027420;28;20163;-64
2022/09/08 07:47:00;;;;;;;6.03;1.75;;;;;;;17.54;100.00;100259.97;5028172;28;20044;-61
2022/09/08 07:49:34;;;;;;;1.75;1.20;;;;;;;17.51;100.00;100257.75;5029979;28;20086;-64
2022/09/08 07:52:21;;;;;;;4.15;1.25;;;;;;;17.54;100.00;100239.72;5024440;28;20041;-62
2022/09/08 07:55:00;;;;;;;5.97;1.63;;;;;;;17.54;100.00;100250.25;5028729;28;20667;-62
2022/09/08 07:57:44;;;;;;;9.98;3.20;;;;;;;17.64;100.00;100238.56;5027108;28;20037;-63
2022/09/08 08:00:34;;;;;;;7.78;2.25;;;;;;;17.71;100.00;100240.25;5028204;28;20032;-62
2022/09/08 08:03:35;;;;;;;7.78;2.40;;;;;;;17.80;100.00;100256.72;5010184;28;20045;-63
2022/09/08 08:06:24;;;;;;;3.70;1.58;;;;;;;17.71;100.00;100271.06;5013168;28;20140;-62
2022/09/08 08:09:11;;;;;;;5.60;1.33;;;;;;;17.65;100.00;100272.66;5014581;28;20045;-63
2022/09/08 08:12:09;;;;;;;5.50;2.17;;;;;;;17.67;100.00;100291.72;5029608;28;20113;-63
2022/09/08 08:15:10;;;;;;;4.00;1.63;;;;;;;17.74;100.00;100286.47;4976876;28;20481;-64
2022/09/08 08:17:36;;;;;;;6.03;2.13;;;;;;;17.72;100.00;100277.94;4962599;28;20045;-61
2022/09/08 08:20:31;;;;;;;4.03;1.17;;;;;;;17.68;100.00;100282.78;5026803;28;20040;-62
2022/09/08 08:23:28;;;;;;;2.78;1.20;;;;;;;17.61;100.00;100283.72;5013604;28;20473;-62
2022/09/08 08:26:22;;;;;;;3.65;0.70;;;;;;;17.54;100.00;100275.78;5010066;28;20045;-62
2022/09/08 08:28:56;;;;;;;4.10;0.90;;;;;;;17.43;100.00;100258.72;5027033;28;20025;-63
2022/09/08 08:31:53;;;;;;;3.83;0.50;;;;;;;17.43;100.00;100256.09;5025162;28;20461;-63
2022/09/08 08:34:28;;;;;;;3.60;1.27;;;;;;;17.54;100.00;100237.09;5020611;28;20049;-62
2022/09/08 08:37:01;;;;;;;3.80;1.50;;;;;;;17.66;100.00;100239.22;5025907;28;20036;-63
2022/09/08 08:39:27;;;;;;;6.10;2.00;;;;;;;17.73;100.00;100338.34;5028487;28;20037;-62
2022/09/08 08:42:15;;;;;;;6.00;1.83;;;;;;;17.68;100.00;100345.22;5026153;28;20030;-61
2022/09/08 08:44:59;;;;;;;5.72;2.45;;;;;;;17.70;100.00;100349.28;5025331;28;20610;-63
2022/09/08 08:47:27;;;;;;;5.05;1.52;;;;;;;17.95;100.00;100335.66;5028502;28;20124;-63
2022/09/08 08:49:58;;;;;;;4.18;2.13;;;;;;;18.01;100.00;100322.47;5021015;28;20033;-65
2022/09/08 08:52:57;;;;;;;4.78;1.95;;;;;;;17.95;100.00;100333.00;5035908;28;20065;-64
2022/09/08 08:55:29;;;;;;;8.80;2.22;;;;;;;17.80;100.00;100293.59;5013911;28;20036;-65
2022/09/08 08:58:19;;;;;;;4.47;2.30;;;;;;;17.74;100.00;100294.38;5027663;28;20037;-62
2022/09/08 09:01:02;;;;;;;2.58;1.70;;;;;;;17.71;100.00;100303.47;5026291;28;20176;-61
2022/09/08 09:03:44;;;;;;;2.85;1.70;;;;;;;17.71;100.00;100321.13;5009018;28;20150;-62
2022/09/08 09:06:20;;;;;;;3.35;1.67;;;;;;;17.73;100.00;100316.47;5016051;28;20141;-62
2022/09/08 09:09:23;;;;;;;4.78;1.80;;;;;;;17.75;100.00;100275.75;5010012;28;20045;-61
2022/09/08 09:12:19;;;;;;;2.72;1.40;;;;;;;17.83;100.00;100277.41;5007669;28;20044;-62
2022/09/08 09:14:56;;;;;;;5.05;1.10;;;;;;;17.90;100.00;100280.88;5022056;28;20033;-61
2022/09/08 09:17:41;;;;;;;7.40;1.65;;;;;;;17.93;100.00;100285.75;5043546;28;20040;-63
2022/09/08 09:20:59;;;;;;;2.85;0.80;;;;;;;17.94;100.00;100266.31;5025308;28;20032;-61
2022/09/08 09:23:59;;;;;;;5.38;1.70;;;;;;;18.01;100.00;100282.13;4984686;28;20045;-61
2022/09/08 09:26:29;;;;;;;4.20;1.33;;;;;;;18.02;100.00;100252.91;5025035;28;20048;-61
2022/09/08 09:29:03;;;;;;;4.95;1.08;;;;;;;18.03;100.00;100241.38;5026427;28;20108;-61
2022/09/08 09:31:47;;;;;;;3.77;0.60;;;;;;;18.03;100.00;100262.47;5017522;28;20143;-61
2022/09/08 09:34:49;;;;;;;3.20;1.15;;;;;;;18.03;100.00;100262.47;5027951;28;20272;-61
2022/09/08 09:38:05;;;;;;;3.03;1.02;;;;;;;18.03;100.00;100285.38;5007475;28;20033;-62
2022/09/08 09:40:50;;;;;;;1.85;0.68;;;;;;;18.01;100.00;100298.75;4954513;28;20219;-62
2022/09/08 09:43:40;;;;;;;4.32;1.30;;;;;;;18.05;100.00;100326.34;4960163;28;20096;-61
2022/09/08 09:46:37;;;;;;;7.47;1.30;;;;;;;18.11;100.00;100327.38;4949668;28;20058;-62
2022/09/08 09:49:05;;;;;;;6.53;2.08;;;;;;;18.13;100.00;100352.53;4950230;28;20050;-62
2022/09/08 09:51:52;;;;;;;5.25;2.03;;;;;;;18.12;100.00;100355.38;4958942;28;20055;-62
2022/09/08 09:54:26;;;;;;;3.97;1.88;;;;;;;18.12;100.00;100352.72;4967823;28;20132;-61
2022/09/08 09:57:29;;;;;;;17.80;4.00;;;;;;;18.17;100.00;100366.97;4966275;28;20070;-62
2022/09/08 10:00:17;;;;;;;3.80;2.17;;;;;;;18.13;100.00;100364.91;4973792;28;20049;-62
2022/09/08 10:02:51;;;;;;;4.32;2.67;;;;;;;18.08;100.00;100347.03;4971964;28;20042;-62
2022/09/08 10:05:36;;;;;;;4.57;2.25;;;;;;;18.08;100.00;100336.50;4968677;28;20511;-61
2022/09/08 10:08:19;;;;;;;4.60;2.22;;;;;;;18.15;100.00;100350.53;4969939;28;20090;-61
2022/09/08 10:11:18;;;;;;;6.50;3.10;;;;;;;18.26;100.00;100379.97;4966884;28;20308;-61
2022/09/08 10:14:06;;;;;;;3.10;2.70;;;;;;;18.23;100.00;100378.56;4981967;28;20132;-61
2022/09/08 10:16:46;;;;;;;4.65;2.42;;;;;;;18.24;100.00;100369.63;5031488;28;20384;-61
2022/09/08 10:20:03;;;;;;;5.38;2.38;;;;;;;18.22;100.00;100372.47;5013425;28;20162;-61
2022/09/08 10:22:47;;;;;;;3.42;2.38;;;;;;;18.23;100.00;100339.00;5029317;28;20026;-61
2022/09/08 10:25:31;;;;;;;3.97;2.58;;;;;;;18.22;100.00;100322.38;5030646;28;20045;-61
2022/09/08 10:28:41;;;;;;;5.18;2.65;;;;;;;18.17;100.00;100321.31;5031258;28;20032;-61
2022/09/08 10:31:45;;;;;;;5.07;2.53;;;;;;;18.12;100.00;100337.72;5012907;28;20036;-61
2022/09/08 10:34:13;;;;;;;4.55;2.40;;;;;;;18.14;100.00;100338.34;5031331;28;20049;-62
2022/09/08 10:37:04;;;;;;;5.28;2.80;;;;;;;18.13;100.00;100330.63;5031114;28;20057;-62
2022/09/08 10:39:48;;;;;;;5.95;2.85;;;;;;;18.13;100.00;100372.81;5011942;28;20021;-63
2022/09/08 10:42:42;;;;;;;3.72;1.95;;;;;;;18.09;100.00;100440.94;5031157;28;20038;-64
2022/09/08 10:45:38;;;;;;;5.38;2.55;;;;;;;18.16;100.00;100497.16;5008998;28;20152;-65
2022/09/08 10:48:12;;;;;;;;;;;;;;;18.12;100.00;100466.09;5011651;28;20372;-66
2022/09/08 10:50:52;;;;;;;30.63;4.97;;;;;;;18.13;100.00;100459.81;5017411;28;19999;-65
2022/09/08 10:53:33;;;;;;;9.10;3.25;;;;;;;18.11;100.00;100444.19;5027867;28;20021;-65
2022/09/08 10:56:07;;;;;;;6.22;3.55;;;;;;;18.09;100.00;100392.66;5030034;28;20041;-65
2022/09/08 10:59:03;;;;;;;6.03;2.70;;;;;;;18.13;100.00;100397.38;5030783;28;20036;-65
2022/09/08 11:01:35;;;;;;;;;;;;;;;18.17;100.00;100427.59;5011422;28;20116;-63
2022/09/08 11:04:09;;;;;;;4.60;2.63;;;;;;;18.25;100.00;100447.72;5010858;28;20537;-64
2022/09/08 11:06:53;;;;;;;4.57;2.97;;;;;;;18.26;100.00;100424.81;5028058;28;20489;-63
2022/09/08 11:09:18;;;;;;;2.97;2.40;;;;;;;18.31;100.00;100404.75;5029898;28;20049;-64
2022/09/08 11:12:18;;;;;;;4.47;2.15;;;;;;;18.34;100.00;100380.63;5030433;28;20500;-62
2022/09/08 11:15:18;;;;;;;4.85;2.33;;;;;;;18.39;100.00;100380.03;5014761;28;20120;-63
2022/09/08 11:17:47;;;;;;;5.90;2.47;;;;;;;18.43;100.00;100391.81;5022685;28;20048;-63
2022/09/08 11:20:35;;;;;;;3.97;2.70;;;;;;;18.40;100.00;100366.66;5030520;28;20064;-62
2022/09/08 11:23:31;;;;;;;3.30;1.85;;;;;;;18.44;100.00;100372.31;5012302;28;20037;-63
2022/09/08 11:26:09;;;;;;;6.00;2.40;;;;;;;18.49;100.00;100367.28;5030447;28;20029;-63
2022/09/08 11:29:01;;;;;;;10.52;3.17;;;;;;;18.56;100.00;100360.19;5027269;28;20065;-64
2022/09/08 11:31:39;;;;;;;5.25;2.53;;;;;;;18.64;100.00;100344.22;5029740;28;20038;-63
2022/09/08 11:34:04;;;;;;;3.75;1.60;;;;;;;18.70;100.00;100340.78;5030015;28;20036;-63
2022/09/08 11:36:59;;;;;;;5.38;1.77;;;;;;;18.75;100.00;100351.56;5030098;28;20376;-63
2022/09/08 11:39:38;;;;;;;5.32;1.88;;;;;;;18.78;100.00;100348.50;5026879;28;20021;-63
2022/09/08 11:42:06;;;;;;;2.17;1.25;;;;;;;18.83;100.00;100346.09;5028204;28;20064;-63
2022/09/08 11:44:43;;;;;;;2.80;1.52;;;;;;;18.88;100.00;100338.38;5029124;28;20030;-63
2022/09/08 11:47:27;;;;;;;2.05;1.55;;;;;;;18.95;100.00;100326.97;5029802;28;20033;-63
2022/09/08 11:50:02;;;;;;;2.30;1.75;;;;;;;18.93;100.00;100336.94;5025155;28;20044;-63
2022/09/08 11:53:11;;;;;;;3.63;1.40;;;;;;;18.93;100.00;100329.81;5029603;28;20052;-63
2022/09/08 11:55:56;;;;;;;4.00;1.77;;;;;;;18.99;100.00;100320.28;5010925;28;20491;-63
2022/09/08 11:58:46;;;;;;;3.03;1.20;;;;;;;18.99;100.00;100325.56;5026144;28;20416;-64
2022/09/08 12:01:39;;;;;;;2.20;1.33;;;;;;;18.96;100.00;100320.69;5009784;28;20033;-64
2022/09/08 12:04:20;;;;;;;3.67;1.30;;;;;;;19.01;100.00;100320.91;5006701;28;20449;-63
2022/09/08 12:06:57;;;;;;;2.53;1.30;;;;;;;19.10;100.00;100317.03;5027014;28;20033;-63
2022/09/08 12:09:32;;;;;;;3.50;1.27;;;;;;;19.14;100.00;100312.97;5026241;28;20038;-64
2022/09/08 12:12:23;;;;;;;2.53;1.23;;;;;;;19.13;100.00;100311.34;5023815;28;20449;-62